Time;durP1;ratioP1;P1;durP2;ratioP2;P2;SDS_P1;SDS_P2;PMS_P1;PMS_P2;Temp;Humidity;BMP_temperature;BMP_pressure;BME280_temperature;BME280_humidity;BME280_pressure;Samples;Min_cycle;Max_cycle;Signal;HPM_P1;HPM_P2
2021/11/15 00:00:37;;;;;;;24.30;16.90;;;;;;;;;;2076597;28;20173;-58
2021/11/15 00:01:43;;;;;;;22.92;16.75;;;;;;;;;;2070128;28;20634;-58
2021/11/15 00:02:44;;;;;;;19.27;14.93;;;;;;;;;;2070972;28;20181;-59
2021/11/15 00:03:45;;;;;;;22.10;16.17;;;;;;;;;;2072656;28;20229;-58
2021/11/15 00:04:45;;;;;;;18.80;14.90;;;;;;;;;;2067112;28;20260;-58
2021/11/15 00:05:46;;;;;;;21.80;15.95;;;;;;;;;;2070325;28;20205;-59
2021/11/15 00:06:46;;;;;;;21.55;16.05;;;;;;;;;;2074575;28;20223;-55
2021/11/15 00:07:46;;;;;;;21.58;15.68;;;;;;;;;;2070135;28;20187;-58
2021/11/15 00:08:46;;;;;;;21.27;15.30;;;;;;;;;;2074917;28;20268;-56
2021/11/15 00:09:47;;;;;;;22.48;15.90;;;;;;;;;;2069802;28;20161;-57
2021/11/15 00:10:47;;;;;;;21.90;16.08;;;;;;;;;;2068604;28;20209;-59
2021/11/15 00:11:47;;;;;;;22.13;16.92;;;;;;;;;;2070399;28;20177;-60
2021/11/15 00:12:51;;;;;;;23.20;16.92;;;;;;;;;;2070139;28;20173;-55
2021/11/15 00:13:51;;;;;;;22.13;16.40;;;;;;;;;;2071027;28;20184;-57
2021/11/15 00:14:51;;;;;;;24.58;17.08;;;;;;;;;;2072112;28;20708;-56
2021/11/15 00:15:52;;;;;;;22.48;15.95;;;;;;;;;;2075088;28;20179;-58
2021/11/15 00:16:53;;;;;;;24.38;16.98;;;;;;;;;;2074325;28;20284;-58
2021/11/15 00:17:53;;;;;;;23.20;16.98;;;;;;;;;;2072529;28;20194;-57
2021/11/15 00:18:53;;;;;;;22.35;16.80;;;;;;;;;;2072657;28;20781;-58
2021/11/15 00:19:53;;;;;;;24.42;17.23;;;;;;;;;;2073374;28;20593;-57
2021/11/15 00:20:54;;;;;;;20.70;15.88;;;;;;;;;;2075312;28;20585;-54
2021/11/15 00:21:54;;;;;;;24.70;17.58;;;;;;;;;;2076602;28;20165;-55
2021/11/15 00:22:54;;;;;;;23.05;17.27;;;;;;;;;;2073729;28;20209;-57
2021/11/15 00:23:55;;;;;;;21.83;16.23;;;;;;;;;;2073402;28;20169;-58
2021/11/15 00:24:55;;;;;;;22.63;16.65;;;;;;;;;;2073120;28;20185;-56
2021/11/15 00:25:55;;;;;;;21.58;17.33;;;;;;;;;;2069424;28;20173;-57
2021/11/15 00:26:55;;;;;;;24.27;16.85;;;;;;;;;;2071499;28;20169;-58
2021/11/15 00:27:56;;;;;;;24.13;17.42;;;;;;;;;;2072592;28;20185;-55
2021/11/15 00:28:58;;;;;;;21.95;15.75;;;;;;;;;;2069191;28;20199;-56
2021/11/15 00:29:59;;;;;;;22.38;16.40;;;;;;;;;;2067431;28;20166;-57
2021/11/15 00:30:59;;;;;;;20.38;16.48;;;;;;;;;;2071700;28;20191;-57
2021/11/15 00:31:59;;;;;;;26.02;16.75;;;;;;;;;;2070218;28;20634;-56
2021/11/15 00:32:59;;;;;;;23.10;16.25;;;;;;;;;;2070049;28;20660;-55
2021/11/15 00:34:00;;;;;;;22.80;15.40;;;;;;;;;;2071053;28;20224;-56
2021/11/15 00:35:00;;;;;;;19.98;14.93;;;;;;;;;;2069963;28;20204;-57
2021/11/15 00:36:01;;;;;;;18.95;14.75;;;;;;;;;;2070271;28;20902;-60
2021/11/15 00:37:01;;;;;;;19.75;15.13;;;;;;;;;;2074423;28;20268;-54
2021/11/15 00:38:01;;;;;;;22.00;15.70;;;;;;;;;;2074947;28;20208;-57
2021/11/15 00:39:02;;;;;;;21.55;16.25;;;;;;;;;;2072957;28;20173;-57
2021/11/15 00:40:04;;;;;;;25.13;17.05;;;;;;;;;;2069378;28;20173;-59
2021/11/15 00:41:05;;;;;;;25.67;16.75;;;;;;;;;;2069355;28;20181;-55
2021/11/15 00:42:05;;;;;;;19.70;15.80;;;;;;;;;;2073672;28;20267;-65
2021/11/15 00:43:06;;;;;;;22.52;16.45;;;;;;;;;;2046930;22;1055970;-60
2021/11/15 00:44:06;;;;;;;20.73;15.98;;;;;;;;;;2074707;28;20211;-62
2021/11/15 00:45:07;;;;;;;20.63;16.05;;;;;;;;;;2080066;28;20184;-62
2021/11/15 00:46:08;;;;;;;22.17;16.13;;;;;;;;;;2080232;28;20200;-62
2021/11/15 00:47:08;;;;;;;21.05;14.93;;;;;;;;;;2076578;28;20234;-62
2021/11/15 00:48:09;;;;;;;22.55;15.98;;;;;;;;;;2079894;28;20179;-61
2021/11/15 00:49:09;;;;;;;21.70;15.85;;;;;;;;;;2077135;28;20184;-59
2021/11/15 00:50:11;;;;;;;24.45;17.17;;;;;;;;;;2077559;28;20613;-64
2021/11/15 00:51:12;;;;;;;19.40;15.30;;;;;;;;;;2079208;28;20214;-62
2021/11/15 00:52:12;;;;;;;24.83;16.27;;;;;;;;;;2077902;28;20199;-61
2021/11/15 00:53:12;;;;;;;24.60;17.92;;;;;;;;;;2079855;28;20172;-61
2021/11/15 00:54:12;;;;;;;22.48;16.35;;;;;;;;;;2079361;28;20184;-64
2021/11/15 00:55:13;;;;;;;27.08;18.10;;;;;;;;;;2079848;28;20211;-62
2021/11/15 00:56:14;;;;;;;26.50;18.33;;;;;;;;;;2079823;28;20179;-62
2021/11/15 00:57:15;;;;;;;22.88;16.48;;;;;;;;;;2079470;28;20535;-63
2021/11/15 00:58:16;;;;;;;21.92;16.85;;;;;;;;;;2080078;28;20168;-61
2021/11/15 00:59:16;;;;;;;25.75;17.55;;;;;;;;;;2080419;28;20775;-61
2021/11/15 01:00:19;;;;;;;25.77;17.30;;;;;;;;;;2078988;28;20251;-60
2021/11/15 01:01:19;;;;;;;23.88;17.75;;;;;;;;;;2080061;28;20691;-62
2021/11/15 01:02:21;;;;;;;29.35;17.73;;;;;;;;;;2079567;28;20175;-58
2021/11/15 01:03:22;;;;;;;26.65;18.88;;;;;;;;;;2077954;28;20210;-57
2021/11/15 01:04:22;;;;;;;25.25;18.73;;;;;;;;;;2077002;28;20241;-59
2021/11/15 01:05:23;;;;;;;20.73;16.50;;;;;;;;;;2078523;28;20269;-61
2021/11/15 01:06:23;;;;;;;24.83;17.65;;;;;;;;;;2078958;28;20204;-59
2021/11/15 01:07:24;;;;;;;23.25;17.90;;;;;;;;;;2080388;28;20176;-60
2021/11/15 01:08:24;;;;;;;25.33;18.15;;;;;;;;;;2080046;28;20195;-61
2021/11/15 01:09:26;;;;;;;26.00;18.33;;;;;;;;;;2078558;28;20191;-58
2021/11/15 01:10:26;;;;;;;24.10;18.13;;;;;;;;;;2078468;28;20176;-61
2021/11/15 01:11:27;;;;;;;22.85;18.40;;;;;;;;;;2078376;28;20188;-61
2021/11/15 01:12:28;;;;;;;25.85;19.05;;;;;;;;;;2079640;28;20176;-62
2021/11/15 01:13:29;;;;;;;23.45;17.85;;;;;;;;;;2079694;28;20196;-61
2021/11/15 01:14:29;;;;;;;25.70;18.38;;;;;;;;;;2080538;28;20177;-62
2021/11/15 01:15:30;;;;;;;25.98;19.38;;;;;;;;;;2078815;28;20179;-61
2021/11/15 01:16:30;;;;;;;27.33;18.83;;;;;;;;;;2080868;28;20207;-60
2021/11/15 01:17:31;;;;;;;25.52;18.63;;;;;;;;;;2079415;28;20172;-60
2021/11/15 01:18:31;;;;;;;29.40;20.40;;;;;;;;;;2077306;28;20207;-61
2021/11/15 01:19:32;;;;;;;27.20;18.80;;;;;;;;;;2078516;28;20179;-62
2021/11/15 01:20:32;;;;;;;28.67;19.55;;;;;;;;;;2077927;28;20168;-60
2021/11/15 01:21:33;;;;;;;29.48;19.45;;;;;;;;;;2078400;28;20230;-61
2021/11/15 01:22:33;;;;;;;25.90;19.08;;;;;;;;;;2079421;28;20180;-59
2021/11/15 01:23:33;;;;;;;27.30;18.83;;;;;;;;;;2080438;28;20287;-61
2021/11/15 01:24:34;;;;;;;31.05;20.77;;;;;;;;;;2078155;28;20200;-60
2021/11/15 01:25:35;;;;;;;25.75;18.77;;;;;;;;;;2080894;28;20251;-59
2021/11/15 01:26:35;;;;;;;32.33;20.23;;;;;;;;;;2080428;28;20268;-61
2021/11/15 01:27:36;;;;;;;30.02;19.50;;;;;;;;;;2077409;28;20161;-62
2021/11/15 01:28:37;;;;;;;28.45;20.17;;;;;;;;;;2080066;28;20223;-59
2021/11/15 01:29:37;;;;;;;32.50;21.10;;;;;;;;;;2078253;28;20809;-62
2021/11/15 01:30:38;;;;;;;29.63;21.13;;;;;;;;;;2079732;28;20172;-60
2021/11/15 01:31:38;;;;;;;33.33;21.63;;;;;;;;;;2080657;28;20176;-61
2021/11/15 01:32:39;;;;;;;29.90;21.27;;;;;;;;;;2079248;28;20172;-61
2021/11/15 01:33:40;;;;;;;31.50;21.30;;;;;;;;;;2077199;28;20193;-61
2021/11/15 01:34:40;;;;;;;31.27;21.67;;;;;;;;;;2078914;28;20242;-62
2021/11/15 01:35:40;;;;;;;32.85;22.40;;;;;;;;;;2076790;28;20165;-62
2021/11/15 01:36:41;;;;;;;30.48;22.30;;;;;;;;;;2078392;28;20238;-62
2021/11/15 01:37:42;;;;;;;34.25;22.27;;;;;;;;;;2080214;28;20184;-63
2021/11/15 01:38:42;;;;;;;32.20;21.17;;;;;;;;;;2078653;28;20169;-62
2021/11/15 01:39:43;;;;;;;31.23;22.20;;;;;;;;;;2079041;28;20176;-63
2021/11/15 01:40:43;;;;;;;29.58;20.20;;;;;;;;;;2078678;28;20192;-63
2021/11/15 01:41:43;;;;;;;31.23;21.20;;;;;;;;;;2081032;28;20179;-62
2021/11/15 01:42:44;;;;;;;32.83;21.60;;;;;;;;;;2079803;28;20231;-60
2021/11/15 01:43:45;;;;;;;32.08;21.98;;;;;;;;;;2081816;28;20211;-63
2021/11/15 01:44:45;;;;;;;30.60;20.67;;;;;;;;;;2079313;28;20184;-61
2021/11/15 01:45:46;;;;;;;31.45;21.75;;;;;;;;;;2081278;28;20210;-62
2021/11/15 01:46:46;;;;;;;32.22;22.25;;;;;;;;;;2080771;28;20177;-61
2021/11/15 01:47:46;;;;;;;32.10;20.90;;;;;;;;;;2082397;28;20168;-60
2021/11/15 01:48:47;;;;;;;33.53;22.52;;;;;;;;;;2080587;28;20184;-63
2021/11/15 01:49:47;;;;;;;33.42;21.58;;;;;;;;;;2082802;28;20199;-63
2021/11/15 01:50:48;;;;;;;33.83;23.27;;;;;;;;;;2082045;28;20262;-62
2021/11/15 01:51:48;;;;;;;35.80;23.92;;;;;;;;;;2083047;28;20574;-64
2021/11/15 01:52:49;;;;;;;33.27;22.07;;;;;;;;;;2079905;28;20766;-62
2021/11/15 01:53:50;;;;;;;35.78;23.45;;;;;;;;;;2082242;28;20191;-62
2021/11/15 01:54:50;;;;;;;35.45;23.15;;;;;;;;;;2090656;28;20282;-64
2021/11/15 01:55:51;;;;;;;34.10;22.90;;;;;;;;;;2088641;28;20259;-63
2021/11/15 01:56:51;;;;;;;33.20;21.90;;;;;;;;;;2083003;28;20184;-62
2021/11/15 01:57:52;;;;;;;36.90;23.48;;;;;;;;;;2081117;28;20227;-63
2021/11/15 01:58:52;;;;;;;35.88;23.30;;;;;;;;;;2082509;28;20256;-63
2021/11/15 01:59:52;;;;;;;38.47;22.48;;;;;;;;;;2080183;28;20184;-63
2021/11/15 02:00:54;;;;;;;36.05;23.58;;;;;;;;;;2079995;28;20176;-62
2021/11/15 02:01:55;;;;;;;34.45;21.08;;;;;;;;;;2080029;28;20177;-63
2021/11/15 02:02:56;;;;;;;30.77;21.85;;;;;;;;;;2081616;28;20173;-62
2021/11/15 02:03:56;;;;;;;30.50;21.23;;;;;;;;;;2081171;28;20188;-60
2021/11/15 02:04:58;;;;;;;30.55;20.55;;;;;;;;;;2079089;28;20180;-63
2021/11/15 02:05:58;;;;;;;32.05;20.02;;;;;;;;;;2079076;28;20206;-62
2021/11/15 02:06:58;;;;;;;33.83;20.98;;;;;;;;;;2081121;28;20176;-62
2021/11/15 02:07:59;;;;;;;29.92;19.52;;;;;;;;;;2080770;28;20184;-62
2021/11/15 02:08:59;;;;;;;33.33;20.33;;;;;;;;;;2080536;28;20175;-62
2021/11/15 02:09:59;;;;;;;34.75;20.90;;;;;;;;;;2077694;28;20188;-62
2021/11/15 02:10:59;;;;;;;30.02;20.88;;;;;;;;;;2078436;28;20211;-63
2021/11/15 02:12:00;;;;;;;30.40;20.23;;;;;;;;;;2077878;28;20186;-58
2021/11/15 02:13:00;;;;;;;31.83;20.40;;;;;;;;;;2079985;28;20181;-61
2021/11/15 02:14:01;;;;;;;30.92;18.50;;;;;;;;;;2081895;28;20188;-61
2021/11/15 02:15:03;;;;;;;26.92;18.23;;;;;;;;;;2079037;28;20247;-61
2021/11/15 02:16:03;;;;;;;27.00;19.20;;;;;;;;;;2079208;28;20271;-60
2021/11/15 02:17:04;;;;;;;29.05;19.63;;;;;;;;;;2081065;28;20215;-62
2021/11/15 02:18:04;;;;;;;29.45;19.38;;;;;;;;;;2079024;28;20614;-60
2021/11/15 02:19:05;;;;;;;27.73;18.57;;;;;;;;;;2081990;28;20172;-64
2021/11/15 02:20:07;;;;;;;24.43;17.97;;;;;;;;;;2079287;28;20177;-63
2021/11/15 02:21:08;;;;;;;25.67;18.98;;;;;;;;;;2079170;28;20177;-61
2021/11/15 02:22:08;;;;;;;29.67;18.60;;;;;;;;;;2080135;28;20172;-61
2021/11/15 02:23:08;;;;;;;24.87;17.83;;;;;;;;;;2082419;28;20195;-59
2021/11/15 02:24:08;;;;;;;24.48;18.25;;;;;;;;;;2079219;28;20173;-61
2021/11/15 02:25:11;;;;;;;26.13;17.02;;;;;;;;;;2076555;28;20164;-60
2021/11/15 02:26:13;;;;;;;25.98;17.60;;;;;;;;;;2079402;28;20188;-62
2021/11/15 02:27:13;;;;;;;25.38;17.80;;;;;;;;;;2078899;28;20239;-61
2021/11/15 02:28:13;;;;;;;22.80;16.77;;;;;;;;;;2071336;28;20208;-60
2021/11/15 02:29:14;;;;;;;24.90;17.63;;;;;;;;;;2080471;28;20716;-60
2021/11/15 02:30:24;;;;;;;22.27;16.05;;;;;;;;;;2076941;28;20173;-62
2021/11/15 02:31:27;;;;;;;22.87;15.60;;;;;;;;;;2081558;28;20666;-62
2021/11/15 02:32:28;;;;;;;25.35;17.40;;;;;;;;;;2079309;28;20180;-62
2021/11/15 02:33:31;;;;;;;27.05;17.10;;;;;;;;;;2081168;28;20250;-62
2021/11/15 02:34:31;;;;;;;22.67;16.42;;;;;;;;;;2079092;28;20663;-62
2021/11/15 02:35:31;;;;;;;26.48;17.33;;;;;;;;;;2080924;28;20164;-62
2021/11/15 02:36:32;;;;;;;21.95;16.10;;;;;;;;;;2082076;28;20214;-61
2021/11/15 02:37:32;;;;;;;22.20;16.05;;;;;;;;;;2081033;28;20172;-64
2021/11/15 02:38:33;;;;;;;28.30;17.97;;;;;;;;;;2078445;28;20176;-63
2021/11/15 02:39:33;;;;;;;26.45;16.85;;;;;;;;;;2080847;28;20172;-62
2021/11/15 02:40:34;;;;;;;26.50;16.33;;;;;;;;;;2082829;28;20540;-59
2021/11/15 02:41:34;;;;;;;21.92;16.35;;;;;;;;;;2079780;28;20156;-61
2021/11/15 02:42:35;;;;;;;24.17;16.55;;;;;;;;;;2081769;28;20533;-60
2021/11/15 02:43:35;;;;;;;21.40;17.02;;;;;;;;;;2082183;28;20208;-63
2021/11/15 02:44:36;;;;;;;22.23;16.45;;;;;;;;;;2081527;28;20200;-63
2021/11/15 02:45:36;;;;;;;23.63;16.65;;;;;;;;;;2079282;28;20538;-62
2021/11/15 02:46:36;;;;;;;24.25;17.02;;;;;;;;;;2081106;28;20192;-63
2021/11/15 02:47:37;;;;;;;21.33;15.50;;;;;;;;;;2080607;28;20176;-62
2021/11/15 02:48:38;;;;;;;26.33;17.15;;;;;;;;;;2081896;28;20656;-63
2021/11/15 02:49:38;;;;;;;25.73;18.05;;;;;;;;;;2080649;28;20200;-62
2021/11/15 02:50:38;;;;;;;24.23;17.17;;;;;;;;;;2079669;28;20180;-62
2021/11/15 02:51:39;;;;;;;25.23;17.58;;;;;;;;;;2078365;28;20184;-63
2021/11/15 02:52:47;;;;;;;27.05;17.38;;;;;;;;;;2077048;28;20177;-63
2021/11/15 02:53:47;;;;;;;23.90;16.13;;;;;;;;;;2080169;28;20723;-63
2021/11/15 02:54:49;;;;;;;25.02;17.08;;;;;;;;;;2082516;28;20207;-65
2021/11/15 02:55:49;;;;;;;23.95;17.15;;;;;;;;;;2079194;28;20251;-63
2021/11/15 02:56:49;;;;;;;26.58;16.73;;;;;;;;;;2077702;28;20180;-64
2021/11/15 02:57:50;;;;;;;23.00;16.52;;;;;;;;;;2082451;28;20547;-63
2021/11/15 02:58:51;;;;;;;25.88;17.55;;;;;;;;;;2082917;28;20210;-61
2021/11/15 02:59:51;;;;;;;22.98;16.40;;;;;;;;;;2082659;28;20168;-64
2021/11/15 03:00:54;;;;;;;24.90;17.42;;;;;;;;;;2081859;28;20271;-63
2021/11/15 03:01:55;;;;;;;25.08;17.77;;;;;;;;;;2082193;28;20176;-63
2021/11/15 03:02:56;;;;;;;23.38;16.35;;;;;;;;;;2082249;28;20594;-63
2021/11/15 03:03:57;;;;;;;21.83;16.77;;;;;;;;;;2082357;28;20299;-63
2021/11/15 03:04:57;;;;;;;26.97;17.47;;;;;;;;;;2078855;28;20172;-63
2021/11/15 03:05:57;;;;;;;26.85;18.00;;;;;;;;;;2079731;28;20172;-63
2021/11/15 03:06:58;;;;;;;23.48;16.65;;;;;;;;;;2080306;28;20214;-64
2021/11/15 03:07:58;;;;;;;25.75;17.50;;;;;;;;;;2080874;28;20207;-63
2021/11/15 03:08:59;;;;;;;24.92;16.50;;;;;;;;;;2080592;28;20168;-67
2021/11/15 03:09:59;;;;;;;24.42;17.48;;;;;;;;;;2078203;28;20222;-61
2021/11/15 03:11:00;;;;;;;21.00;16.37;;;;;;;;;;2077003;28;20663;-64
2021/11/15 03:12:01;;;;;;;25.05;17.08;;;;;;;;;;2079520;28;20661;-63
2021/11/15 03:13:01;;;;;;;26.98;18.40;;;;;;;;;;2078688;28;20214;-63
2021/11/15 03:14:02;;;;;;;24.98;17.58;;;;;;;;;;2080711;28;20193;-61
2021/11/15 03:15:02;;;;;;;26.35;17.65;;;;;;;;;;2080851;28;20204;-62
2021/11/15 03:16:04;;;;;;;25.48;18.83;;;;;;;;;;2079017;28;20539;-62
2021/11/15 03:17:04;;;;;;;22.50;16.88;;;;;;;;;;2078277;28;20585;-61
2021/11/15 03:18:12;;;;;;;24.90;16.75;;;;;;;;;;2081323;28;20188;-63
2021/11/15 03:19:12;;;;;;;24.65;17.65;;;;;;;;;;2080762;28;20188;-63
2021/11/15 03:20:12;;;;;;;25.10;18.15;;;;;;;;;;2080439;28;20572;-59
2021/11/15 03:21:14;;;;;;;21.27;16.85;;;;;;;;;;2070701;28;20180;-63
2021/11/15 03:22:15;;;;;;;25.10;17.42;;;;;;;;;;2070072;28;20534;-63
2021/11/15 03:23:17;;;;;;;25.03;17.90;;;;;;;;;;2080962;28;20199;-63
2021/11/15 03:24:17;;;;;;;23.13;17.13;;;;;;;;;;2081257;28;20213;-62
2021/11/15 03:25:17;;;;;;;28.40;18.90;;;;;;;;;;2081426;28;20590;-59
2021/11/15 03:26:18;;;;;;;25.20;17.92;;;;;;;;;;2078288;28;20176;-61
2021/11/15 03:27:18;;;;;;;25.77;17.63;;;;;;;;;;2081383;28;20164;-61
2021/11/15 03:28:23;;;;;;;22.83;17.55;;;;;;;;;;2078644;28;20271;-61
2021/11/15 03:29:23;;;;;;;25.42;17.80;;;;;;;;;;2080340;28;20712;-60
2021/11/15 03:30:24;;;;;;;28.25;19.05;;;;;;;;;;2081841;28;20191;-63
2021/11/15 03:31:30;;;;;;;29.05;18.13;;;;;;;;;;2080850;28;20184;-60
2021/11/15 03:32:30;;;;;;;27.63;17.73;;;;;;;;;;2081905;28;20200;-62
2021/11/15 03:33:31;;;;;;;25.08;18.15;;;;;;;;;;2084990;28;20192;-56
2021/11/15 03:34:32;;;;;;;26.20;17.38;;;;;;;;;;2086990;28;20176;-58
2021/11/15 03:35:32;;;;;;;24.80;18.25;;;;;;;;;;2087367;28;20679;-61
2021/11/15 03:36:33;;;;;;;26.75;18.27;;;;;;;;;;2090328;28;20195;-58
2021/11/15 03:37:34;;;;;;;28.63;18.48;;;;;;;;;;2089013;28;20184;-59
2021/11/15 03:38:34;;;;;;;31.43;18.53;;;;;;;;;;2088942;28;20172;-62
2021/11/15 03:39:35;;;;;;;25.30;16.73;;;;;;;;;;2086629;28;20166;-55
2021/11/15 03:40:35;;;;;;;26.05;16.85;;;;;;;;;;2084797;28;20357;-59
2021/11/15 03:41:37;;;;;;;26.05;17.50;;;;;;;;;;2086376;28;20670;-56
2021/11/15 03:42:37;;;;;;;25.25;17.70;;;;;;;;;;2091802;28;20183;-59
2021/11/15 03:43:38;;;;;;;24.42;17.10;;;;;;;;;;2086601;28;20257;-61
2021/11/15 03:44:38;;;;;;;27.95;17.88;;;;;;;;;;2087856;28;20199;-61
2021/11/15 03:45:39;;;;;;;25.83;17.83;;;;;;;;;;2082731;28;20200;-61
2021/11/15 03:46:40;;;;;;;24.80;17.52;;;;;;;;;;2085873;28;20227;-60
2021/11/15 03:47:41;;;;;;;25.87;16.80;;;;;;;;;;2084097;28;20178;-61
2021/11/15 03:48:41;;;;;;;28.85;17.65;;;;;;;;;;2087057;28;20176;-62
2021/11/15 03:49:41;;;;;;;25.30;16.83;;;;;;;;;;2083874;28;20185;-63
2021/11/15 03:50:42;;;;;;;24.67;18.07;;;;;;;;;;2084825;28;20203;-59
2021/11/15 03:51:43;;;;;;;19.60;15.63;;;;;;;;;;2080616;28;20188;-62
2021/11/15 03:52:44;;;;;;;26.42;18.15;;;;;;;;;;2081817;28;20179;-62
2021/11/15 03:53:44;;;;;;;24.25;16.83;;;;;;;;;;2080696;28;20215;-60
2021/11/15 03:54:44;;;;;;;25.85;17.98;;;;;;;;;;2081246;28;20200;-61
2021/11/15 03:55:45;;;;;;;26.23;17.63;;;;;;;;;;2077843;28;20335;-62
2021/11/15 03:56:45;;;;;;;26.42;16.35;;;;;;;;;;2081641;28;20179;-62
2021/11/15 03:57:45;;;;;;;23.13;16.70;;;;;;;;;;2078895;28;20200;-61
2021/11/15 03:58:46;;;;;;;24.40;17.90;;;;;;;;;;2071798;28;20172;-62
2021/11/15 03:59:46;;;;;;;26.48;17.35;;;;;;;;;;2078723;28;20203;-62
2021/11/15 04:00:46;;;;;;;28.40;18.05;;;;;;;;;;2078439;28;20241;-62
2021/11/15 04:01:47;;;;;;;24.87;17.17;;;;;;;;;;2078747;28;20226;-58
2021/11/15 04:02:50;;;;;;;31.30;18.83;;;;;;;;;;2080833;28;20196;-62
2021/11/15 04:03:51;;;;;;;28.50;19.00;;;;;;;;;;2078514;28;20200;-57
2021/11/15 04:04:52;;;;;;;26.57;18.70;;;;;;;;;;2080185;28;20179;-62
2021/11/15 04:06:00;;;;;;;28.07;18.10;;;;;;;;;;2080126;28;20176;-59
2021/11/15 04:07:00;;;;;;;29.67;19.23;;;;;;;;;;2083091;28;20592;-62
2021/11/15 04:08:02;;;;;;;26.97;19.50;;;;;;;;;;2080170;28;20181;-62
2021/11/15 04:09:07;;;;;;;30.08;19.10;;;;;;;;;;2082684;28;20554;-60
2021/11/15 04:10:14;;;;;;;31.53;19.53;;;;;;;;;;2078997;28;20187;-61
2021/11/15 04:11:19;;;;;;;29.38;19.23;;;;;;;;;;2086015;28;20167;-60
2021/11/15 04:12:19;;;;;;;28.95;19.77;;;;;;;;;;2088322;28;20187;-62
2021/11/15 04:13:22;;;;;;;29.73;18.85;;;;;;;;;;2079519;28;20184;-62
2021/11/15 04:14:22;;;;;;;29.50;19.67;;;;;;;;;;2082118;28;20262;-62
2021/11/15 04:15:23;;;;;;;31.08;19.88;;;;;;;;;;2080635;28;20215;-62
2021/11/15 04:16:23;;;;;;;33.77;20.33;;;;;;;;;;2081837;28;20718;-62
2021/11/15 04:17:23;;;;;;;32.22;20.75;;;;;;;;;;2080133;28;20168;-63
2021/11/15 04:18:25;;;;;;;30.35;20.30;;;;;;;;;;2079743;28;20195;-61
2021/11/15 04:19:25;;;;;;;32.28;20.40;;;;;;;;;;2079271;28;20180;-60
2021/11/15 04:20:26;;;;;;;31.43;21.40;;;;;;;;;;2080303;28;20171;-60
2021/11/15 04:21:27;;;;;;;33.35;20.45;;;;;;;;;;2081461;28;20581;-61
2021/11/15 04:22:28;;;;;;;30.43;20.23;;;;;;;;;;2083643;28;20183;-60
2021/11/15 04:23:28;;;;;;;38.00;21.02;;;;;;;;;;2080557;28;20280;-60
2021/11/15 04:24:28;;;;;;;35.33;22.17;;;;;;;;;;2080738;28;20188;-62
2021/11/15 04:25:29;;;;;;;32.47;21.52;;;;;;;;;;2071781;28;20172;-62
2021/11/15 04:26:30;;;;;;;33.28;20.88;;;;;;;;;;2077772;28;20188;-63
2021/11/15 04:27:30;;;;;;;39.42;21.83;;;;;;;;;;2080031;28;20237;-58
2021/11/15 04:28:30;;;;;;;32.47;21.73;;;;;;;;;;2081169;28;20183;-63
2021/11/15 04:29:31;;;;;;;38.97;23.13;;;;;;;;;;2076455;28;20215;-60
2021/11/15 04:30:32;;;;;;;35.05;22.38;;;;;;;;;;2077572;28;20601;-63
2021/11/15 04:31:32;;;;;;;33.72;22.30;;;;;;;;;;2077890;28;20180;-60
2021/11/15 04:32:32;;;;;;;39.13;23.05;;;;;;;;;;2079722;28;20521;-62
2021/11/15 04:33:33;;;;;;;39.45;22.83;;;;;;;;;;2080580;28;20281;-63
2021/11/15 04:34:33;;;;;;;39.57;24.40;;;;;;;;;;2081299;28;20195;-59
2021/11/15 04:35:35;;;;;;;43.53;23.97;;;;;;;;;;2079326;28;20176;-62
2021/11/15 04:36:35;;;;;;;41.20;25.33;;;;;;;;;;2080784;28;20173;-61
2021/11/15 04:37:36;;;;;;;45.00;26.08;;;;;;;;;;2079095;28;20546;-61
2021/11/15 04:38:36;;;;;;;45.03;25.20;;;;;;;;;;2078218;28;20164;-61
2021/11/15 04:39:36;;;;;;;44.80;25.10;;;;;;;;;;2080170;28;20173;-62
2021/11/15 04:40:37;;;;;;;43.90;25.17;;;;;;;;;;2078975;28;20642;-62
2021/11/15 04:41:38;;;;;;;42.78;25.52;;;;;;;;;;2080773;28;20168;-62
2021/11/15 04:42:38;;;;;;;45.03;24.87;;;;;;;;;;2079071;28;20646;-64
2021/11/15 04:43:38;;;;;;;41.65;24.25;;;;;;;;;;2080069;28;20239;-65
2021/11/15 04:44:39;;;;;;;46.15;24.48;;;;;;;;;;2069959;28;20191;-61
2021/11/15 04:45:39;;;;;;;42.40;24.43;;;;;;;;;;2079850;28;20173;-62
2021/11/15 04:46:40;;;;;;;42.27;24.53;;;;;;;;;;2081448;28;20271;-62
2021/11/15 04:47:40;;;;;;;45.15;25.40;;;;;;;;;;2080172;28;20192;-62
2021/11/15 04:48:40;;;;;;;41.03;23.73;;;;;;;;;;2079723;28;20168;-62
2021/11/15 04:49:41;;;;;;;40.17;24.07;;;;;;;;;;2080621;28;20526;-61
2021/11/15 04:50:41;;;;;;;40.37;24.83;;;;;;;;;;2079581;28;20244;-63
2021/11/15 04:51:42;;;;;;;42.42;24.90;;;;;;;;;;2073826;28;20169;-62
2021/11/15 04:52:42;;;;;;;43.30;24.10;;;;;;;;;;2079757;28;20753;-62
2021/11/15 04:53:42;;;;;;;41.88;24.30;;;;;;;;;;2081716;28;20192;-63
2021/11/15 04:54:43;;;;;;;39.30;23.37;;;;;;;;;;2078208;28;20188;-61
2021/11/15 04:55:43;;;;;;;42.90;23.90;;;;;;;;;;2079971;28;20664;-62
2021/11/15 04:56:44;;;;;;;39.00;23.38;;;;;;;;;;2080432;28;20165;-62
2021/11/15 04:57:44;;;;;;;42.67;22.87;;;;;;;;;;2079743;28;20912;-63
2021/11/15 04:58:44;;;;;;;39.50;23.17;;;;;;;;;;2081536;28;20175;-62
2021/11/15 04:59:46;;;;;;;42.83;23.17;;;;;;;;;;2080684;28;20225;-62
2021/11/15 05:00:46;;;;;;;41.13;23.92;;;;;;;;;;2079857;28;20187;-62
2021/11/15 05:01:46;;;;;;;45.13;24.00;;;;;;;;;;2083003;28;20263;-63
2021/11/15 05:02:48;;;;;;;37.87;22.17;;;;;;;;;;2081988;28;20191;-63
2021/11/15 05:03:49;;;;;;;40.73;23.33;;;;;;;;;;2079977;28;20222;-63
2021/11/15 05:04:49;;;;;;;41.40;23.83;;;;;;;;;;2082408;28;20226;-62
2021/11/15 05:05:49;;;;;;;41.93;23.93;;;;;;;;;;2081983;28;20226;-63
2021/11/15 05:06:50;;;;;;;42.17;22.92;;;;;;;;;;2082166;28;20169;-63
2021/11/15 05:07:53;;;;;;;39.95;24.23;;;;;;;;;;2078237;28;20200;-63
2021/11/15 05:08:54;;;;;;;40.58;23.25;;;;;;;;;;2079469;28;20295;-63
2021/11/15 05:09:54;;;;;;;41.15;22.67;;;;;;;;;;2083840;28;20184;-64
2021/11/15 05:10:54;;;;;;;42.30;21.50;;;;;;;;;;2080732;28;20205;-63
2021/11/15 05:11:55;;;;;;;42.17;22.60;;;;;;;;;;2081745;28;20211;-59
2021/11/15 05:12:56;;;;;;;41.40;23.33;;;;;;;;;;2079076;28;20223;-61
2021/11/15 05:13:56;;;;;;;40.50;22.02;;;;;;;;;;2081385;28;20207;-63
2021/11/15 05:14:56;;;;;;;39.05;23.65;;;;;;;;;;2079617;28;20219;-62
2021/11/15 05:15:57;;;;;;;38.10;22.73;;;;;;;;;;2089998;28;20175;-62
2021/11/15 05:16:57;;;;;;;40.27;22.43;;;;;;;;;;2093414;28;20180;-61
2021/11/15 05:17:58;;;;;;;38.53;23.67;;;;;;;;;;2087828;28;20188;-59
2021/11/15 05:18:59;;;;;;;39.77;22.67;;;;;;;;;;2085705;28;20185;-64
2021/11/15 05:19:59;;;;;;;36.67;22.53;;;;;;;;;;2085862;28;20169;-60
2021/11/15 05:21:00;;;;;;;43.78;23.08;;;;;;;;;;2084436;28;20165;-62
2021/11/15 05:22:00;;;;;;;40.00;22.30;;;;;;;;;;2086876;28;20203;-62
2021/11/15 05:23:00;;;;;;;40.22;22.48;;;;;;;;;;2087316;28;20173;-63
2021/11/15 05:24:00;;;;;;;41.47;22.42;;;;;;;;;;2080907;28;20197;-63
2021/11/15 05:25:01;;;;;;;39.30;22.17;;;;;;;;;;2081208;28;20346;-64
2021/11/15 05:26:01;;;;;;;36.23;21.57;;;;;;;;;;2080823;28;20173;-63
2021/11/15 05:27:02;;;;;;;43.65;23.63;;;;;;;;;;2070717;28;20683;-61
2021/11/15 05:28:02;;;;;;;40.17;22.55;;;;;;;;;;2073321;28;20210;-62
2021/11/15 05:29:02;;;;;;;40.92;23.20;;;;;;;;;;2082096;28;20276;-60
2021/11/15 05:30:07;;;;;;;41.67;23.10;;;;;;;;;;2081489;28;20172;-61
2021/11/15 05:31:07;;;;;;;40.53;24.97;;;;;;;;;;2081329;28;20177;-62
2021/11/15 05:32:08;;;;;;;40.03;22.63;;;;;;;;;;2082041;28;20191;-63
2021/11/15 05:33:08;;;;;;;43.50;23.98;;;;;;;;;;2082701;28;20215;-61
2021/11/15 05:34:08;;;;;;;43.08;23.92;;;;;;;;;;2081213;28;20257;-63
2021/11/15 05:35:09;;;;;;;39.03;22.48;;;;;;;;;;2082519;28;20244;-63
2021/11/15 05:36:09;;;;;;;44.03;24.20;;;;;;;;;;2081709;28;20164;-60
2021/11/15 05:37:11;;;;;;;41.05;23.45;;;;;;;;;;2083756;28;20212;-58
2021/11/15 05:38:11;;;;;;;37.90;22.37;;;;;;;;;;2082179;28;20226;-62
2021/11/15 05:39:11;;;;;;;36.33;22.70;;;;;;;;;;2085808;28;20183;-59
2021/11/15 05:40:12;;;;;;;40.40;23.17;;;;;;;;;;2082191;28;20539;-59
2021/11/15 05:41:12;;;;;;;40.45;23.45;;;;;;;;;;2086651;28;20228;-61
2021/11/15 05:42:12;;;;;;;41.03;22.83;;;;;;;;;;2084548;28;20722;-63
2021/11/15 05:43:13;;;;;;;37.43;21.83;;;;;;;;;;2085219;28;20202;-62
2021/11/15 05:44:13;;;;;;;38.00;21.95;;;;;;;;;;2084387;28;20171;-62
2021/11/15 05:45:13;;;;;;;37.25;22.15;;;;;;;;;;2086140;28;20191;-62
2021/11/15 05:46:14;;;;;;;37.60;21.73;;;;;;;;;;2082424;28;20180;-62
2021/11/15 05:47:14;;;;;;;35.33;21.85;;;;;;;;;;2082894;28;20184;-62
2021/11/15 05:48:15;;;;;;;38.50;21.92;;;;;;;;;;2079708;28;20191;-63
2021/11/15 05:49:16;;;;;;;35.72;22.08;;;;;;;;;;2083566;28;20629;-62
2021/11/15 05:50:17;;;;;;;43.95;22.42;;;;;;;;;;2080227;28;20279;-64
2021/11/15 05:51:17;;;;;;;35.53;21.60;;;;;;;;;;2083304;28;20176;-61
2021/11/15 05:52:21;;;;;;;40.95;21.67;;;;;;;;;;2077366;28;20200;-59
2021/11/15 05:53:21;;;;;;;36.78;21.42;;;;;;;;;;2082015;28;20185;-61